Latest Weather Observations for Fingal

IDT60801

Issued at 3:31 pm EST Tuesday 28 July 2015 (issued every 30 minutes, with the page automatically refreshed every 10 minutes)

About weather observations | Map of weather stations | Latest weather observations for TAS | Other Formats
Station Details ID: 092012 Name: FINGAL (LEGGE STREET) Lat: -41.64 Lon: 147.97 Height: 237.0 m
Data from the previous 72 hours. | See also: Recent months at Fingal
Date/Time
EST
Temp
°C
App
Temp
°C
Dew
Point
Rel
Hum
%
Delta-T
°C
Wind Press
QNH
hPa
Press
MSL
hPa
Rain
since 9 am
mm
Dir
 
Spd
km/h
Gust
km/h
Spd
kts
Gust
kts
28/03:30pm 13.6 8.9 3.1 49 4.7 W 17 26 9 14 - - 0.0
28/03:00pm 13.2 9.3 3.3 51 4.5 WSW 13 26 7 14 - - 0.0
28/02:30pm 14.0 10.1 3.2 48 4.9 WSW 13 20 7 11 - - 0.0
28/02:00pm 13.3 9.0 3.1 50 4.6 WSW 15 30 8 16 - - 0.0
28/01:30pm 13.7 9.8 3.2 49 4.8 WSW 13 20 7 11 - - 0.0
28/01:00pm 13.2 9.2 3.0 50 4.6 WSW 13 19 7 10 - - 0.0
28/12:30pm 13.2 8.7 2.4 48 4.8 SW 15 24 8 13 - - 0.0
28/12:00pm 13.1 8.4 3.2 51 4.5 WSW 17 32 9 17 - - 0.0
28/11:30am 12.9 8.1 2.7 50 4.5 SW 17 30 9 16 - - 0.0
28/11:00am 12.5 9.7 2.9 52 4.3 NNW 7 19 4 10 - - 0.0
28/10:30am 9.5 7.4 3.7 67 2.6 N 4 6 2 3 - - 0.0
28/10:00am 6.1 3.2 2.4 77 1.5 NNE 7 13 4 7 - - 0.0
28/09:30am 3.9 2.2 1.6 85 0.9 CALM 0 0 0 0 - - 0.0
28/09:00am 2.8 0.6 1.0 88 0.7 NW 2 7 1 4 - - 0.0
28/08:30am 2.0 -1.0 0.5 90 0.6 E 6 15 3 8 - - 0.0
28/08:00am 1.3 -1.8 0.0 91 0.5 E 6 9 3 5 - - 0.0
28/07:30am 0.7 -1.7 -0.6 91 0.5 ENE 2 7 1 4 - - 0.0
28/07:00am 0.3 -2.2 -1.0 91 0.5 NE 2 7 1 4 - - 0.0
28/06:30am 0.4 -2.5 -0.9 91 0.5 SE 4 9 2 5 - - 0.0
28/06:00am 0.0 -2.6 -1.4 90 0.5 SSE 2 7 1 4 - - 0.0
28/05:30am 0.2 -3.1 -1.4 89 0.6 SSE 6 7 3 4 - - 0.0
28/05:00am 0.4 -2.1 -1.3 88 0.6 WNW 2 6 1 3 - - 0.0
28/04:30am 0.9 -1.3 -1.2 86 0.7 CALM 0 0 0 0 - - 0.0
28/04:00am 1.9 -0.2 -0.7 83 1.0 CALM 0 0 0 0 - - 0.0
28/03:30am 3.2 -0.1 0.4 82 1.1 NNE 7 9 4 5 - - 0.0
28/03:00am 4.6 1.9 0.4 74 1.6 W 4 9 2 5 - - 0.0
28/02:30am 5.8 2.3 1.3 73 1.8 WSW 9 17 5 9 - - 0.0
28/02:00am 6.5 2.2 1.2 69 2.1 WSW 13 20 7 11 - - 0.0
28/01:30am 8.4 3.4 1.6 62 2.8 SW 17 28 9 15 - - 0.0
28/01:00am 8.4 3.4 1.6 62 2.8 SSW 17 24 9 13 - - 0.0
28/12:30am 8.5 3.5 1.4 61 2.9 SSW 17 26 9 14 - - 0.0
28/12:00am 8.7 3.7 1.4 60 3.0 SW 17 28 9 15 - - 0.0
 
Date/Time
EST
Temp
°C
App
Temp
°C
Dew
Point
Rel
Hum
%
Delta-T
°C
Wind Press
QNH
hPa
Press
MSL
hPa
Rain
since 9 am
mm
Dir
 
Spd
km/h
Gust
km/h
Spd
kts
Gust
kts
27/11:30pm 8.7 3.3 1.1 59 3.1 SW 19 26 10 14 - - 0.0
27/11:00pm 7.5 3.3 1.8 67 2.4 WSW 13 20 7 11 - - 0.0
27/10:30pm 8.2 3.5 1.1 61 2.9 SW 15 22 8 12 - - 0.0
27/10:00pm 8.4 3.4 1.3 61 2.9 SSW 17 26 9 14 - - 0.0
27/09:30pm 8.4 4.1 1.3 61 2.9 SW 13 22 7 12 - - 0.0
27/09:00pm 8.5 4.2 1.2 60 3.0 SSW 13 17 7 9 - - 0.0
27/08:30pm 8.8 4.9 1.0 58 3.2 SSW 11 17 6 9 - - 0.0
27/08:00pm 8.9 5.0 1.1 58 3.2 SSW 11 20 6 11 - - 0.0
27/07:30pm 9.1 5.5 0.8 56 3.4 SSW 9 13 5 7 - - 0.0
27/07:00pm 9.3 5.0 0.7 55 3.5 SSW 13 24 7 13 - - 0.0
27/06:30pm 8.9 5.4 1.1 58 3.2 SW 9 20 5 11 - - 0.0
27/06:00pm 8.9 5.5 1.8 61 3.0 WSW 9 13 5 7 - - 0.0
27/05:30pm 9.0 5.2 1.7 60 3.1 WSW 11 20 6 11 - - 0.0
27/05:00pm 8.9 5.6 2.3 63 2.8 SW 9 15 5 8 - - 0.0
27/04:30pm 9.3 4.4 2.2 61 3.0 SW 17 35 9 19 - - 0.0
27/04:00pm 9.9 5.5 2.5 60 3.2 W 15 26 8 14 - - 0.0
27/03:30pm 10.0 4.7 1.9 57 3.5 W 19 32 10 17 - - 0.0
27/03:00pm 9.5 4.0 1.9 59 3.2 WSW 20 33 11 18 - - 0.0
27/02:30pm 9.9 5.3 1.8 57 3.4 SW 15 30 8 16 - - 0.0
27/02:00pm 9.3 4.6 1.2 57 3.4 SW 15 35 8 19 - - 0.0
27/01:30pm 9.5 4.9 1.4 57 3.4 SW 15 20 8 11 - - 0.0
27/01:00pm 9.1 4.3 0.3 54 3.6 SW 15 33 8 18 - - 0.0
27/12:30pm 8.7 3.6 0.7 57 3.3 SW 17 28 9 15 - - 0.0
27/12:00pm 8.2 3.1 0.7 59 3.1 SW 17 28 9 15 - - 0.0
27/11:30am 8.2 3.0 0.2 57 3.2 SW 17 26 9 14 - - 0.0
27/11:00am 8.4 3.8 -0.9 52 3.6 SW 13 20 7 11 - - 0.0
27/10:30am 8.5 3.6 -0.8 52 3.7 SW 15 28 8 15 - - 0.0
27/10:00am 8.0 3.3 -1.8 50 3.7 SW 13 26 7 14 - - 0.0
27/09:30am 7.5 1.4 -2.5 49 3.7 SSW 20 33 11 18 - - 0.0
27/09:00am 6.9 0.9 -2.8 50 3.6 SW 19 33 10 18 - - 0.0
27/08:30am 6.4 0.8 -2.7 52 3.3 SW 17 32 9 17 - - 0.0
27/08:00am 5.9 0.6 -3.2 52 3.3 S 15 28 8 15 - - 0.0
27/07:30am 5.4 -0.2 -3.1 54 3.0 SSW 17 37 9 20 - - 0.0
27/07:00am 5.3 0.0 -3.2 54 3.0 SSW 15 26 8 14 - - 0.0
27/06:30am 5.4 -0.8 -3.4 53 3.1 SSW 20 43 11 23 - - 0.0
27/06:00am 5.3 0.0 -3.7 52 3.2 SW 15 26 8 14 - - 0.0
27/05:30am 5.2 -0.5 -3.8 52 3.2 WSW 17 33 9 18 - - 0.0
27/05:00am 5.1 -1.2 -3.9 52 3.2 SW 20 35 11 19 - - 0.0
27/04:30am 5.4 -2.5 -4.4 49 3.4 SW 28 50 15 27 - - 0.0
27/04:05am 5.5 -2.4 -4.3 49 3.4 SW 28 46 15 25 - - 0.0
27/04:00am 5.5 -2.0 -4.6 48 3.5 SW 26 43 14 23 - - 0.0
27/03:35am 5.5 -2.7 -4.3 49 3.4 SW 30 50 16 27 - - 0.0
27/03:30am 5.5 -2.4 -4.3 49 3.4 SW 28 44 15 24 - - 0.0
27/03:00am 5.4 -2.1 -4.2 50 3.3 SW 26 48 14 26 - - 0.0
27/02:32am 5.8 -2.1 -4.6 47 3.6 SW 28 57 15 31 - - 0.0
27/02:30am 5.7 -1.8 -4.4 48 3.5 SW 26 43 14 23 - - 0.0
27/02:00am 5.6 -1.1 -4.3 49 3.5 SW 22 39 12 21 - - 0.0
27/01:30am 5.9 -1.2 -4.0 49 3.5 SW 24 50 13 27 - - 0.0
27/01:00am 6.1 -1.2 -3.0 52 3.3 SW 26 44 14 24 - - 0.0
27/12:30am 6.0 -0.1 -2.3 55 3.1 SW 20 30 11 16 - - 0.0
27/12:00am 6.1 0.6 -2.0 56 3.0 SSW 17 35 9 19 - - 0.0
 
Date/Time
EST
Temp
°C
App
Temp
°C
Dew
Point
Rel
Hum
%
Delta-T
°C
Wind Press
QNH
hPa
Press
MSL
hPa
Rain
since 9 am
mm
Dir
 
Spd
km/h
Gust
km/h
Spd
kts
Gust
kts
26/11:30pm 6.3 0.3 -1.6 57 3.0 WSW 20 35 11 19 - - 0.0
26/11:02pm 6.7 -1.2 -1.2 57 3.0 WSW 30 52 16 28 - - 0.0
26/11:00pm 6.7 -1.2 -1.2 57 3.0 WSW 30 46 16 25 - - 0.0
26/10:37pm 6.9 -0.5 -0.8 58 3.0 WSW 28 46 15 25 - - 0.0
26/10:30pm 7.0 0.4 -0.7 58 3.0 WSW 24 46 13 25 - - 0.0
26/10:00pm 7.4 0.0 -0.8 56 3.2 WSW 28 50 15 27 - - 0.0
26/09:57pm 7.5 0.1 -0.7 56 3.2 WSW 28 50 15 27 - - 0.0
26/09:30pm 7.2 1.3 -0.5 58 3.0 WSW 20 41 11 22 - - 0.0
26/09:00pm 6.6 1.4 0.1 63 2.6 SW 17 28 9 15 - - 0.0
26/08:30pm 6.9 2.9 0.6 64 2.5 SW 11 20 6 11 - - 0.0
26/08:00pm 7.1 2.4 0.8 64 2.5 WSW 15 28 8 15 - - 0.0
26/07:30pm 7.1 1.4 0.8 64 2.5 WSW 20 43 11 23 - - 0.0
26/07:07pm 7.4 0.1 0.2 60 2.9 WSW 28 46 15 25 - - 0.0
26/07:00pm 7.3 1.6 0.3 61 2.8 WSW 20 37 11 20 - - 0.0
26/06:30pm 7.1 1.8 -0.6 58 3.0 WNW 17 41 9 22 - - 0.0
26/06:00pm 7.1 0.4 -1.1 56 3.2 WNW 24 33 13 18 - - 0.0
26/05:30pm 6.2 1.3 -0.7 61 2.7 NW 15 32 8 17 - - 0.0
26/05:00pm 6.6 0.8 -0.1 62 2.6 WNW 20 32 11 17 - - 0.0
26/04:30pm 6.9 1.3 -0.1 61 2.8 WNW 19 32 10 17 - - 0.0
26/04:00pm 8.1 2.2 -0.6 54 3.4 WNW 20 35 11 19 - - 0.0
26/03:30pm 8.9 3.1 -0.4 52 3.7 WNW 20 37 11 20 - - 0.0
26/03:00pm 8.9 2.2 -1.2 49 4.0 WNW 24 48 13 26 - - 0.0
26/02:30pm 9.0 2.6 -1.7 47 4.1 WNW 22 39 12 21 - - 0.0
26/02:06pm 9.1 1.5 -1.9 46 4.2 WNW 28 46 15 25 - - 0.0
26/02:00pm 9.0 2.1 -2.3 45 4.3 W 24 39 13 21 - - 0.0
26/01:30pm 9.0 0.8 -1.1 49 4.0 NW 32 50 17 27 - - 0.0
26/01:08pm 9.2 0.8 -2.1 45 4.3 WNW 32 65 17 35 - - 0.0
26/01:00pm 9.4 1.9 -1.6 46 4.3 WNW 28 46 15 25 - - 0.0
26/12:54pm 9.1 1.6 -1.6 47 4.2 WNW 28 46 15 25 - - 0.0
26/12:30pm 9.3 1.1 -0.8 49 4.0 NW 32 46 17 25 - - 0.0
26/12:19pm 9.2 1.8 -0.9 49 4.0 WNW 28 52 15 28 - - 0.0
26/12:00pm 9.0 1.1 -1.7 47 4.1 NW 30 46 16 25 - - 0.0
26/11:41am 9.0 1.6 -0.9 50 3.9 WNW 28 52 15 28 - - 0.0
26/11:30am 9.1 2.3 -1.6 47 4.2 NW 24 41 13 22 - - 0.0
26/11:00am 8.6 2.0 -0.7 52 3.7 NW 24 37 13 20 - - 0.0
26/10:30am 7.2 0.5 -1.0 56 3.2 WNW 24 43 13 23 - - 0.0
26/10:00am 7.9 2.4 0.4 59 3.0 NW 19 32 10 17 - - 0.0
26/09:30am 6.4 0.4 0.9 68 2.2 WNW 22 35 12 19 - - 0.0
26/09:15am 7.0 -0.4 -0.9 57 3.1 NW 28 57 15 31 - - 0.0
26/09:00am 7.3 1.6 -0.6 57 3.1 WNW 19 32 10 17 - - 4.0
26/08:30am 6.9 0.6 -0.8 58 3.0 WNW 22 37 12 20 - - 4.0
26/08:00am 6.5 1.1 -1.4 57 3.0 WNW 17 26 9 14 - - 4.0
26/07:30am 5.8 0.8 -1.1 61 2.6 NNW 15 28 8 15 - - 4.0
26/07:11am 6.1 -1.3 -0.8 61 2.6 NW 28 48 15 26 - - 4.0
26/07:00am 6.1 -0.9 -0.2 64 2.5 NW 26 41 14 22 - - 4.0
26/06:32am 7.2 -0.2 -1.0 56 3.2 NW 28 46 15 25 - - 4.0
26/06:30am 7.1 0.0 -1.1 56 3.2 NW 26 46 14 25 - - 4.0
26/06:00am 7.2 0.9 -0.7 57 3.1 NW 22 44 12 24 - - 4.0
26/05:30am 7.2 1.4 0.0 60 2.8 NNW 20 39 11 21 - - 4.0
26/05:00am 6.9 1.3 0.1 62 2.7 NW 19 28 10 15 - - 4.0
26/04:30am 6.6 1.3 1.7 71 2.0 NNW 19 26 10 14 - - 4.0
26/04:00am 6.4 0.2 1.9 73 1.8 NW 24 43 13 23 - - 4.0
26/03:30am 6.0 1.5 2.3 77 1.5 NW 15 32 8 17 - - 4.0
26/03:00am 6.7 1.4 3.0 77 1.6 NW 20 35 11 19 - - 3.8
26/02:37am 7.8 2.9 2.1 67 2.4 N 17 46 9 25 - - 3.8
26/02:30am 6.7 3.7 4.2 84 1.1 WSW 9 15 5 8 - - 3.8
26/02:00am 8.2 3.3 4.0 75 1.8 NW 19 30 10 16 - - 2.8
26/01:30am 8.5 3.1 4.7 77 1.7 NNW 22 37 12 20 - - 2.8
26/01:00am 8.7 4.2 6.2 84 1.2 NNW 19 33 10 18 - - 2.0
26/12:30am 8.5 3.4 5.8 83 1.2 N 22 35 12 19 - - 1.6
26/12:00am 8.5 4.3 5.8 83 1.2 NNW 17 32 9 17 - - 0.8
 
Date/Time
EST
Temp
°C
App
Temp
°C
Dew
Point
Rel
Hum
%
Delta-T
°C
Wind Press
QNH
hPa
Press
MSL
hPa
Rain
since 9 am
mm
Dir
 
Spd
km/h
Gust
km/h
Spd
kts
Gust
kts
25/11:30pm 9.0 3.8 5.4 78 1.6 NNW 22 39 12 21 - - 0.2
25/11:00pm 9.5 5.1 4.5 71 2.3 N 17 30 9 16 - - 0.0
25/10:30pm 9.9 5.8 4.3 68 2.5 NE 15 22 8 12 - - 0.0
25/10:00pm 9.6 5.9 4.2 69 2.4 ENE 13 22 7 12 - - 0.0
25/09:30pm 9.6 5.8 3.8 67 2.6 NE 13 20 7 11 - - 0.0
25/09:00pm 9.4 4.7 3.4 66 2.6 NNE 17 24 9 13 - - 0.0
25/08:30pm 9.1 5.9 2.9 65 2.7 NE 9 26 5 14 - - 0.0
25/08:00pm 8.3 5.6 2.8 68 2.4 NNW 6 11 3 6 - - 0.0
25/07:30pm 9.2 4.6 1.6 59 3.2 NW 15 22 8 12 - - 0.0
25/07:00pm 8.6 3.5 0.8 58 3.2 NNW 17 30 9 16 - - 0.0
25/06:30pm 7.7 4.2 1.3 64 2.6 NNE 9 13 5 7 - - 0.0
25/06:00pm 8.9 5.5 1.6 60 3.1 SW 9 17 5 9 - - 0.0
25/05:30pm 9.1 5.9 0.8 56 3.4 WSW 7 9 4 5 - - 0.0
25/05:00pm 9.7 5.3 0.6 53 3.7 W 13 20 7 11 - - 0.0
25/04:30pm 10.2 5.9 1.1 53 3.8 W 13 20 7 11 - - 0.0
25/04:00pm 10.8 6.2 1.4 52 4.0 NW 15 26 8 14 - - 0.0
25/03:47pm 11.2 4.0 0.6 48 4.4 WNW 28 48 15 26 - - 0.0

Other Formats:

Comma delimited format used in spreadsheet applications
http://www.bom.gov.au/fwo/IDT60801/IDT60801.95974.axf

JavaScript Object Notation format (JSON) in row-major order
http://www.bom.gov.au/fwo/IDT60801/IDT60801.95974.json